Time;durP1;ratioP1;P1;durP2;ratioP2;P2;SDS_P1;SDS_P2;PMS_P1;PMS_P2;Temp;Humidity;BMP_temperature;BMP_pressure;BME280_temperature;BME280_humidity;BME280_pressure;Samples;Min_cycle;Max_cycle;Signal;HPM_P1;HPM_P2
2022/11/18 00:02:22;;;;;;;10.70;6.90;;;5.60;99.90;;;;;;4995261;28;20225;-65
2022/11/18 00:04:48;;;;;;;9.53;6.33;;;5.50;99.90;;;;;;5017184;28;20201;-65
2022/11/18 00:07:15;;;;;;;11.23;6.93;;;5.50;99.90;;;;;;5025220;28;20232;-65
2022/11/18 00:09:42;;;;;;;11.33;7.27;;;5.50;99.90;;;;;;5013867;28;20225;-66
2022/11/18 00:14:55;;;;;;;10.53;6.40;;;5.50;99.90;;;;;;5026516;28;20255;-65
2022/11/18 00:17:22;;;;;;;10.10;6.63;;;5.50;99.90;;;;;;4985156;28;20205;-65
2022/11/18 00:19:48;;;;;;;9.63;6.80;;;5.50;99.90;;;;;;5028167;28;20222;-66
2022/11/18 00:22:15;;;;;;;11.57;6.83;;;5.50;99.90;;;;;;5008796;28;20206;-65
2022/11/18 00:24:42;;;;;;;8.77;7.00;;;5.50;99.90;;;;;;5013855;28;20210;-65
2022/11/18 00:27:09;;;;;;;10.93;6.33;;;5.50;99.90;;;;;;5011688;28;20206;-65
2022/11/18 00:29:37;;;;;;;11.73;6.10;;;5.50;99.90;;;;;;5027180;28;21877;-65
2022/11/18 00:32:07;;;;;;;11.70;7.30;;;5.50;99.90;;;;;;5000600;28;20226;-66
2022/11/18 00:34:33;;;;;;;9.33;5.93;;;5.50;99.90;;;;;;5012981;28;20395;-65
2022/11/18 00:37:00;;;;;;;11.63;6.37;;;5.40;99.90;;;;;;5015516;28;20202;-65
2022/11/18 00:39:27;;;;;;;9.27;6.33;;;5.50;99.90;;;;;;5013972;28;20221;-65
2022/11/18 00:44:39;;;;;;;8.97;5.90;;;5.40;99.90;;;;;;5021139;28;20276;-65
2022/11/18 00:47:07;;;;;;;11.23;6.57;;;5.50;99.90;;;;;;5014140;28;20216;-65
2022/11/18 00:49:34;;;;;;;10.80;6.33;;;5.40;99.90;;;;;;4999179;28;20832;-65
2022/11/18 00:52:01;;;;;;;10.00;7.00;;;5.40;99.90;;;;;;5010211;28;20232;-65
2022/11/18 00:54:28;;;;;;;12.40;7.13;;;5.40;99.90;;;;;;4998672;28;20233;-65
2022/11/18 00:56:55;;;;;;;11.90;6.03;;;5.50;99.90;;;;;;5011074;28;20213;-65
2022/11/18 00:59:21;;;;;;;9.20;6.27;;;5.50;99.90;;;;;;5011623;28;20205;-66
2022/11/18 01:01:48;;;;;;;11.23;6.53;;;5.50;99.90;;;;;;5021655;28;20209;-65
2022/11/18 01:04:17;;;;;;;10.20;6.40;;;5.50;99.90;;;;;;4996379;28;20217;-65
2022/11/18 01:06:44;;;;;;;11.37;6.97;;;5.50;99.90;;;;;;5023232;28;20204;-66
2022/11/18 01:09:11;;;;;;;10.50;7.33;;;5.50;99.90;;;;;;5006611;28;20229;-66
2022/11/18 01:14:24;;;;;;;13.93;6.93;;;5.50;99.90;;;;;;5006983;28;20841;-65
2022/11/18 01:16:54;;;;;;;14.17;7.97;;;5.40;99.90;;;;;;5028685;28;20223;-65
2022/11/18 01:19:22;;;;;;;12.77;7.13;;;5.40;99.90;;;;;;4991809;28;21595;-65
2022/11/18 01:21:49;;;;;;;9.97;6.93;;;5.50;99.90;;;;;;5026856;28;20678;-65
2022/11/18 01:24:16;;;;;;;10.03;7.20;;;5.40;99.90;;;;;;5014051;28;20819;-66
2022/11/18 01:26:43;;;;;;;11.17;7.37;;;5.40;99.90;;;;;;5013042;28;20203;-65
2022/11/18 01:29:10;;;;;;;12.23;7.43;;;5.40;99.90;;;;;;5011226;28;20216;-66
2022/11/18 01:31:38;;;;;;;9.60;6.60;;;5.40;99.90;;;;;;5006287;28;20217;-65
2022/11/18 01:34:05;;;;;;;12.47;7.10;;;5.30;99.90;;;;;;5010389;28;20592;-65
2022/11/18 01:36:33;;;;;;;12.03;6.93;;;5.40;99.90;;;;;;5010310;28;20652;-66
2022/11/18 01:39:00;;;;;;;11.40;6.60;;;5.30;99.90;;;;;;5017459;28;20206;-65
2022/11/18 01:41:27;;;;;;;8.93;6.17;;;5.30;99.90;;;;;;5003437;28;20242;-65
2022/11/18 01:43:57;;;;;;;9.50;6.33;;;5.30;99.90;;;;;;5021717;28;20229;-66
2022/11/18 01:46:25;;;;;;;8.93;5.80;;;5.30;99.90;;;;;;5004444;28;20224;-65
2022/11/18 01:48:55;;;;;;;9.10;5.77;;;5.30;99.90;;;;;;5010846;28;20199;-65
2022/11/18 01:51:26;;;;;;;8.43;5.43;;;5.40;99.90;;;;;;4990580;28;20229;-65
2022/11/18 01:54:00;;;;;;;6.70;5.17;;;5.40;99.90;;;;;;5017280;28;20220;-66
2022/11/18 01:56:32;;;;;;;8.20;5.10;;;5.30;99.90;;;;;;4988268;28;20229;-66
2022/11/18 01:59:05;;;;;;;6.93;5.23;;;5.30;99.90;;;;;;5008507;28;20206;-66
2022/11/18 02:01:32;;;;;;;9.70;5.80;;;5.30;99.90;;;;;;5001529;28;20233;-65
2022/11/18 02:03:59;;;;;;;9.57;5.17;;;5.30;99.90;;;;;;5023860;28;20219;-65
2022/11/18 02:06:26;;;;;;;6.63;5.03;;;5.30;99.90;;;;;;4992856;28;20217;-66
2022/11/18 02:08:55;;;;;;;8.23;5.37;;;5.20;99.90;;;;;;5022091;28;20205;-66
2022/11/18 02:14:09;;;;;;;8.67;5.70;;;5.20;99.90;;;;;;5010066;28;20325;-65
2022/11/18 02:17:02;;;;;;;8.27;5.67;;;5.20;99.90;;;;;;5001035;28;20209;-66
2022/11/18 02:19:50;;;;;;;8.90;5.67;;;5.30;99.90;;;;;;5019449;28;20304;-65
2022/11/18 02:22:35;;;;;;;11.83;6.47;;;5.20;99.90;;;;;;4985155;28;20233;-65
2022/11/18 02:25:10;;;;;;;9.67;5.57;;;5.10;99.90;;;;;;5009410;28;20202;-65
2022/11/18 02:28:21;;;;;;;9.07;5.70;;;5.20;99.90;;;;;;4979056;28;21285;-65
2022/11/18 02:30:56;;;;;;;8.40;5.47;;;5.20;99.90;;;;;;4982746;28;20221;-65
2022/11/18 02:33:26;;;;;;;8.40;5.53;;;5.20;99.90;;;;;;5010589;28;20205;-65
2022/11/18 02:35:59;;;;;;;9.87;5.60;;;5.20;99.90;;;;;;5012533;28;20201;-65
2022/11/18 02:38:31;;;;;;;8.73;6.10;;;5.10;99.90;;;;;;4991327;28;21322;-67
2022/11/18 02:41:03;;;;;;;8.27;5.33;;;5.10;99.90;;;;;;5007152;28;20439;-65
2022/11/18 02:43:34;;;;;;;8.47;5.40;;;5.10;99.90;;;;;;5015596;28;20210;-65
2022/11/18 02:46:06;;;;;;;8.77;4.83;;;5.10;99.90;;;;;;5000067;28;21976;-66
2022/11/18 02:48:36;;;;;;;10.07;5.43;;;5.10;99.90;;;;;;5024092;28;20316;-65
2022/11/18 02:51:07;;;;;;;8.53;6.10;;;5.10;99.90;;;;;;5021877;28;20204;-65
2022/11/18 02:53:36;;;;;;;9.03;6.03;;;5.10;99.90;;;;;;4988228;28;20210;-65
2022/11/18 02:56:03;;;;;;;9.07;4.97;;;5.10;99.90;;;;;;4989471;28;20304;-65
2022/11/18 02:58:30;;;;;;;9.27;5.67;;;5.10;99.90;;;;;;5023992;28;20208;-65
2022/11/18 03:00:59;;;;;;;8.80;5.57;;;5.10;99.90;;;;;;4998376;28;20229;-66
2022/11/18 03:03:30;;;;;;;7.23;5.20;;;5.10;99.90;;;;;;5007846;28;20631;-66
2022/11/18 03:06:06;;;;;;;8.80;5.70;;;5.10;99.90;;;;;;5022269;28;20198;-65
2022/11/18 03:08:39;;;;;;;8.97;5.30;;;5.10;99.90;;;;;;4989630;28;20226;-65
2022/11/18 03:11:14;;;;;;;8.33;5.47;;;5.10;99.90;;;;;;5011632;28;20206;-65
2022/11/18 03:13:52;;;;;;;10.63;6.30;;;5.10;99.90;;;;;;5017370;28;20197;-65
2022/11/18 03:16:25;;;;;;;10.67;6.37;;;5.10;99.90;;;;;;5005597;28;20690;-65
2022/11/18 03:18:59;;;;;;;10.93;6.13;;;5.10;99.90;;;;;;5007571;28;20205;-65
2022/11/18 03:21:35;;;;;;;9.33;6.10;;;5.10;99.90;;;;;;5011801;28;21030;-66
2022/11/18 03:24:09;;;;;;;7.50;5.13;;;5.00;99.90;;;;;;4997327;28;20216;-65
2022/11/18 03:26:39;;;;;;;11.13;6.10;;;5.00;99.90;;;;;;4999401;28;20311;-66
2022/11/18 03:29:12;;;;;;;9.97;5.83;;;5.00;99.90;;;;;;5023022;28;20202;-65
2022/11/18 03:31:42;;;;;;;11.43;6.33;;;4.90;99.90;;;;;;4998731;28;20221;-65
2022/11/18 03:34:14;;;;;;;9.50;6.13;;;4.90;99.90;;;;;;5007348;28;20213;-65
2022/11/18 03:36:45;;;;;;;12.83;6.23;;;4.90;99.90;;;;;;5011180;28;20220;-65
2022/11/18 03:39:14;;;;;;;8.50;5.90;;;4.80;99.90;;;;;;4995460;28;20202;-66
2022/11/18 03:41:48;;;;;;;9.27;6.13;;;4.90;99.90;;;;;;5003542;28;20236;-65
2022/11/18 03:44:22;;;;;;;9.90;6.00;;;4.80;99.90;;;;;;5026818;28;20276;-65
2022/11/18 03:46:56;;;;;;;8.30;5.17;;;4.80;99.90;;;;;;5002403;28;20216;-65
2022/11/18 03:49:29;;;;;;;8.97;6.13;;;4.80;99.90;;;;;;5013040;28;20209;-65
2022/11/18 03:52:00;;;;;;;10.37;6.33;;;4.80;99.90;;;;;;5014596;28;20217;-65
2022/11/18 03:54:31;;;;;;;9.77;6.37;;;4.70;99.90;;;;;;5000413;28;20671;-65
2022/11/18 03:57:00;;;;;;;8.77;5.90;;;4.70;99.90;;;;;;5012616;28;20670;-65
2022/11/18 03:59:31;;;;;;;11.43;6.77;;;4.70;99.90;;;;;;5028234;28;20224;-66
2022/11/18 04:02:04;;;;;;;10.07;6.47;;;4.70;99.90;;;;;;4999613;28;20272;-65
2022/11/18 04:04:32;;;;;;;11.70;7.17;;;4.60;99.90;;;;;;5014266;28;20698;-65
2022/11/18 04:07:04;;;;;;;12.70;7.20;;;4.60;99.90;;;;;;5014549;28;20198;-65
2022/11/18 04:09:36;;;;;;;15.60;6.47;;;4.70;99.90;;;;;;4996404;28;20232;-65
2022/11/18 04:12:05;;;;;;;11.80;6.20;;;4.60;99.90;;;;;;5004838;28;20237;-65
2022/11/18 04:14:34;;;;;;;10.33;6.60;;;4.60;99.90;;;;;;5023646;28;20235;-65
2022/11/18 04:17:05;;;;;;;12.40;7.10;;;4.60;99.90;;;;;;5010683;28;20225;-65
2022/11/18 04:19:33;;;;;;;12.63;7.13;;;4.60;99.90;;;;;;5006681;28;20237;-65
2022/11/18 04:22:00;;;;;;;8.73;5.83;;;4.50;99.90;;;;;;5027971;28;20798;-65
2022/11/18 04:24:27;;;;;;;12.00;7.93;;;;;;;;;;5006316;28;20217;-66
2022/11/18 04:26:54;;;;;;;10.93;6.23;;;4.50;99.90;;;;;;5012540;28;20217;-65
2022/11/18 04:29:21;;;;;;;9.33;6.17;;;4.50;99.90;;;;;;4997872;28;20221;-65
2022/11/18 04:31:48;;;;;;;10.03;7.07;;;4.50;99.90;;;;;;4991750;28;20205;-65
2022/11/18 04:34:15;;;;;;;9.77;6.67;;;4.40;99.90;;;;;;5028401;28;20211;-65
2022/11/18 04:36:43;;;;;;;11.57;6.90;;;4.40;99.90;;;;;;5007772;28;20703;-66
2022/11/18 04:39:10;;;;;;;10.13;6.57;;;4.40;99.90;;;;;;5012185;28;20204;-65
2022/11/18 04:44:21;;;;;;;13.80;7.20;;;4.40;99.90;;;;;;4994613;28;23358;-65
2022/11/18 04:46:48;;;;;;;9.10;5.87;;;4.50;99.90;;;;;;4993254;28;20206;-65
2022/11/18 04:49:15;;;;;;;10.13;6.60;;;4.30;99.90;;;;;;5003358;28;20706;-65
2022/11/18 04:51:44;;;;;;;13.30;6.70;;;4.40;99.90;;;;;;4997253;28;20197;-65
2022/11/18 04:54:12;;;;;;;11.30;6.73;;;4.40;99.90;;;;;;5015145;28;20659;-65
2022/11/18 04:56:39;;;;;;;11.90;6.93;;;4.30;99.90;;;;;;4985596;28;20232;-64
2022/11/18 04:59:06;;;;;;;9.07;6.50;;;4.40;99.90;;;;;;4996596;28;20213;-64
2022/11/18 05:01:34;;;;;;;9.57;6.40;;;4.40;99.90;;;;;;4993865;28;20221;-65
2022/11/18 05:04:01;;;;;;;9.63;6.53;;;4.30;99.90;;;;;;5012726;28;20233;-64
2022/11/18 05:06:29;;;;;;;10.47;6.40;;;4.40;99.90;;;;;;5010457;28;20553;-65
2022/11/18 05:08:58;;;;;;;10.87;6.83;;;4.40;99.90;;;;;;5023705;28;20233;-65
2022/11/18 05:14:09;;;;;;;9.00;6.60;;;4.30;99.90;;;;;;5002244;28;21134;-66
2022/11/18 05:16:36;;;;;;;9.83;7.03;;;4.30;99.90;;;;;;5020740;28;20228;-65
2022/11/18 05:19:05;;;;;;;10.47;7.17;;;4.30;99.90;;;;;;5001573;28;20235;-66
2022/11/18 05:21:32;;;;;;;10.67;6.67;;;4.30;99.90;;;;;;5028519;28;20228;-65
2022/11/18 05:24:01;;;;;;;10.60;6.50;;;4.20;99.90;;;;;;5009128;28;20228;-65
2022/11/18 05:26:28;;;;;;;9.10;6.60;;;4.20;99.90;;;;;;4993205;28;21805;-65
2022/11/18 05:28:55;;;;;;;10.47;6.93;;;4.30;99.90;;;;;;4990124;28;20213;-66
2022/11/18 05:31:22;;;;;;;9.20;5.97;;;4.30;99.90;;;;;;4999874;28;20229;-65
2022/11/18 05:33:49;;;;;;;11.00;6.50;;;4.30;99.90;;;;;;4990557;28;20241;-65
2022/11/18 05:36:19;;;;;;;13.87;6.13;;;4.20;99.90;;;;;;5008016;28;20233;-65
2022/11/18 05:38:46;;;;;;;12.60;7.57;;;4.00;99.90;;;;;;5006623;28;20228;-65
2022/11/18 05:43:09;;;;;;;15.40;7.47;;;4.20;99.90;;;;;;4993085;28;20738;-65
2022/11/18 05:44:02;;;;;;;10.53;7.03;;;4.20;99.90;;;;;;5000163;28;20266;-64
2022/11/18 05:46:29;;;;;;;10.90;6.90;;;4.20;99.90;;;;;;5021632;28;20239;-65
2022/11/18 05:48:56;;;;;;;9.93;6.70;;;4.20;99.90;;;;;;4996258;28;20248;-65
2022/11/18 05:51:23;;;;;;;11.53;7.27;;;4.20;99.90;;;;;;5006283;28;20216;-64
2022/11/18 05:53:52;;;;;;;10.47;7.27;;;4.20;99.90;;;;;;5008223;28;20232;-65
2022/11/18 05:56:23;;;;;;;10.30;6.73;;;4.10;99.90;;;;;;4981924;28;20275;-64
2022/11/18 05:58:50;;;;;;;10.37;6.23;;;4.10;99.90;;;;;;4974622;28;20272;-66
2022/11/18 06:01:21;;;;;;;10.87;6.97;;;4.10;99.90;;;;;;5012699;28;20221;-66
2022/11/18 06:03:48;;;;;;;11.03;7.03;;;4.00;99.90;;;;;;5000556;28;20225;-65
2022/11/18 06:06:19;;;;;;;9.73;6.43;;;4.00;99.90;;;;;;4994595;28;20225;-65
2022/11/18 06:08:49;;;;;;;9.57;6.30;;;4.00;99.90;;;;;;4997215;28;21842;-65
2022/11/18 06:11:19;;;;;;;11.90;6.67;;;4.00;99.90;;;;;;5003614;28;20232;-65
2022/11/18 06:13:51;;;;;;;10.27;6.10;;;4.00;99.90;;;;;;4979517;28;20230;-65
2022/11/18 06:16:23;;;;;;;11.80;7.27;;;4.00;99.90;;;;;;5016722;28;20224;-64
2022/11/18 06:18:50;;;;;;;11.17;7.23;;;4.00;99.90;;;;;;5015393;28;20233;-65
2022/11/18 06:21:17;;;;;;;9.47;6.50;;;4.00;99.90;;;;;;4996769;28;20221;-65
2022/11/18 06:23:44;;;;;;;9.93;6.27;;;4.00;99.90;;;;;;5024228;28;20212;-65
2022/11/18 06:26:14;;;;;;;14.40;7.53;;;4.00;99.90;;;;;;5013305;28;20213;-65
2022/11/18 06:28:43;;;;;;;11.07;6.33;;;3.90;99.90;;;;;;5003548;28;20675;-66
2022/11/18 06:31:11;;;;;;;11.43;7.20;;;3.90;99.90;;;;;;5018307;28;20198;-65
2022/11/18 06:33:38;;;;;;;8.93;6.27;;;3.90;99.90;;;;;;5028207;28;20205;-65
2022/11/18 06:36:05;;;;;;;9.23;5.80;;;3.90;99.90;;;;;;5014241;28;20770;-65
2022/11/18 06:38:31;;;;;;;9.40;5.90;;;3.90;99.90;;;;;;5015994;28;20194;-64
2022/11/18 06:41:00;;;;;;;10.53;6.87;;;3.90;99.90;;;;;;5010481;28;20206;-65
2022/11/18 06:43:40;;;;;;;10.07;6.60;;;3.80;99.90;;;;;;5032542;28;20202;-65
2022/11/18 06:48:55;;;;;;;10.80;6.30;;;3.80;99.90;;;;;;5022267;28;20262;-65
2022/11/18 06:51:22;;;;;;;10.57;6.30;;;3.80;99.90;;;;;;5019066;28;20221;-65
2022/11/18 06:53:49;;;;;;;8.83;6.13;;;3.90;99.90;;;;;;5015531;28;20201;-65
2022/11/18 06:56:18;;;;;;;9.77;6.50;;;3.90;99.90;;;;;;5026468;28;20207;-65
2022/11/18 06:58:45;;;;;;;10.10;6.33;;;;;;;;;;4993285;28;20205;-66
2022/11/18 07:01:14;;;;;;;8.67;6.33;;;3.90;99.90;;;;;;5027011;28;20717;-66
2022/11/18 07:03:41;;;;;;;9.53;6.67;;;3.90;99.90;;;;;;5014737;28;20707;-65
2022/11/18 07:06:11;;;;;;;9.23;6.30;;;3.90;99.90;;;;;;5008085;28;20212;-65
2022/11/18 07:08:39;;;;;;;10.43;6.57;;;3.90;99.90;;;;;;4989698;28;20611;-64
2022/11/18 07:11:08;;;;;;;9.13;6.30;;;3.90;99.90;;;;;;5006946;28;20208;-65
2022/11/18 07:13:35;;;;;;;11.23;6.83;;;3.90;99.90;;;;;;5012113;28;20228;-65
2022/11/18 07:16:04;;;;;;;11.20;6.97;;;3.90;99.90;;;;;;4981297;28;20213;-65
2022/11/18 07:18:31;;;;;;;10.67;6.80;;;3.90;99.90;;;;;;5011637;28;20209;-65
2022/11/18 07:21:01;;;;;;;10.17;7.00;;;3.90;99.90;;;;;;5023556;28;20206;-65
2022/11/18 07:23:30;;;;;;;9.70;6.70;;;3.90;99.90;;;;;;5002893;28;20298;-66
2022/11/18 07:25:56;;;;;;;11.63;7.30;;;3.90;99.90;;;;;;5011892;28;21857;-64
2022/11/18 07:28:23;;;;;;;13.57;8.27;;;3.90;99.90;;;;;;5013755;28;20229;-65
2022/11/18 07:30:50;;;;;;;12.00;7.47;;;3.90;99.90;;;;;;5002791;28;20598;-65
2022/11/18 07:33:18;;;;;;;12.07;7.53;;;3.90;99.90;;;;;;5004292;28;20229;-65
2022/11/18 07:35:45;;;;;;;11.90;7.70;;;3.90;99.90;;;;;;5025797;28;20217;-64
2022/11/18 07:38:11;;;;;;;10.60;6.93;;;3.90;99.90;;;;;;5005012;28;20865;-65
2022/11/18 07:40:39;;;;;;;13.23;8.00;;;3.90;99.90;;;;;;5026162;28;20288;-65
2022/11/18 07:43:07;;;;;;;11.17;7.53;;;3.80;99.90;;;;;;5020393;28;20232;-65
2022/11/18 07:45:34;;;;;;;11.50;7.50;;;3.90;99.90;;;;;;5021474;28;20235;-65
2022/11/18 07:48:01;;;;;;;14.37;7.07;;;3.80;99.90;;;;;;4989163;28;20216;-65
2022/11/18 07:50:28;;;;;;;11.37;7.30;;;3.80;99.90;;;;;;5016210;28;20675;-66
2022/11/18 07:52:56;;;;;;;12.20;7.87;;;3.80;99.90;;;;;;5026633;28;20198;-65
2022/11/18 07:55:23;;;;;;;12.13;6.93;;;3.90;99.90;;;;;;4994651;28;20213;-65
2022/11/18 07:57:51;;;;;;;12.70;7.83;;;3.90;99.90;;;;;;5028687;28;20209;-65
2022/11/18 08:00:19;;;;;;;12.60;8.67;;;3.90;99.90;;;;;;5005472;28;20999;-66
2022/11/18 08:02:50;;;;;;;14.47;8.63;;;3.80;99.90;;;;;;5002613;28;20715;-65
2022/11/18 08:05:17;;;;;;;13.33;8.20;;;3.80;99.90;;;;;;5000789;28;20229;-64
2022/11/18 08:07:43;;;;;;;12.97;8.43;;;3.80;99.90;;;;;;5028309;28;20198;-65
2022/11/18 08:10:10;;;;;;;11.73;7.60;;;3.70;99.90;;;;;;5014253;28;20202;-65
2022/11/18 08:12:37;;;;;;;13.50;8.43;;;3.70;99.90;;;;;;5027587;28;20709;-64
2022/11/18 08:15:06;;;;;;;15.20;9.37;;;3.80;99.90;;;;;;5010943;28;20308;-65
2022/11/18 08:17:33;;;;;;;12.47;7.73;;;3.90;99.90;;;;;;4998750;28;20641;-65
2022/11/18 08:20:00;;;;;;;13.83;8.90;;;3.80;99.90;;;;;;5019530;28;20201;-65
2022/11/18 08:22:27;;;;;;;15.43;9.53;;;3.80;99.90;;;;;;5022462;28;20226;-65
2022/11/18 08:24:54;;;;;;;14.93;9.50;;;3.70;99.90;;;;;;5032340;28;20209;-65
2022/11/18 08:27:20;;;;;;;11.73;8.93;;;3.80;99.90;;;;;;5011612;28;20209;-65
2022/11/18 08:29:47;;;;;;;16.63;9.40;;;3.80;99.90;;;;;;5021648;28;20225;-65
2022/11/18 08:32:15;;;;;;;13.57;8.83;;;3.80;99.90;;;;;;5004730;28;20217;-64
2022/11/18 08:34:42;;;;;;;13.93;9.60;;;3.80;99.90;;;;;;4993400;28;20220;-65
2022/11/18 08:37:09;;;;;;;14.53;9.63;;;3.80;99.90;;;;;;5015437;28;20206;-65
2022/11/18 08:39:35;;;;;;;14.93;9.93;;;3.70;99.90;;;;;;5026940;28;20214;-65
2022/11/18 08:42:02;;;;;;;15.87;9.70;;;3.70;99.90;;;;;;5016930;28;20697;-65
2022/11/18 08:44:32;;;;;;;16.63;10.30;;;3.60;99.90;;;;;;5030545;28;20952;-65
2022/11/18 08:46:59;;;;;;;15.27;9.57;;;3.70;99.90;;;;;;5010312;28;20824;-65
2022/11/18 08:49:27;;;;;;;14.13;9.43;;;3.70;99.90;;;;;;4981736;28;21460;-65
2022/11/18 08:51:54;;;;;;;16.30;9.70;;;3.60;99.90;;;;;;5001138;28;20585;-65
2022/11/18 08:54:21;;;;;;;15.70;10.47;;;3.60;99.90;;;;;;5012148;28;20209;-65
2022/11/18 08:56:49;;;;;;;16.47;9.83;;;3.60;99.90;;;;;;5015664;28;20595;-65
2022/11/18 08:59:16;;;;;;;18.13;11.60;;;3.60;99.90;;;;;;5025229;28;20194;-65
2022/11/18 09:01:43;;;;;;;14.90;10.13;;;3.70;99.90;;;;;;5029498;28;20215;-65
2022/11/18 09:04:10;;;;;;;17.73;10.57;;;3.70;99.90;;;;;;4984790;28;20718;-65
2022/11/18 09:06:39;;;;;;;19.37;11.53;;;3.60;99.90;;;;;;5014961;28;20225;-65
2022/11/18 09:09:07;;;;;;;19.43;11.60;;;3.50;99.90;;;;;;4997453;28;20249;-64
2022/11/18 09:11:34;;;;;;;18.73;11.23;;;3.70;99.90;;;;;;5009984;28;20236;-64
2022/11/18 09:14:01;;;;;;;18.60;11.33;;;3.60;99.90;;;;;;4996821;28;20644;-65
2022/11/18 09:16:30;;;;;;;19.37;11.63;;;3.50;99.90;;;;;;5023995;28;20593;-65
2022/11/18 09:18:58;;;;;;;21.27;12.13;;;3.50;99.90;;;;;;4985069;28;20229;-65
2022/11/18 09:21:26;;;;;;;20.23;11.97;;;3.50;99.90;;;;;;5003604;28;20311;-64
2022/11/18 09:23:54;;;;;;;18.10;11.30;;;3.50;99.90;;;;;;5016036;28;20244;-65
2022/11/18 09:26:23;;;;;;;20.93;11.53;;;3.60;99.90;;;;;;5010409;28;20536;-66
2022/11/18 09:28:52;;;;;;;23.73;12.37;;;3.50;99.90;;;;;;5006237;28;20278;-66
2022/11/18 09:31:19;;;;;;;22.50;12.20;;;3.60;99.90;;;;;;5007448;28;20237;-66
2022/11/18 09:33:46;;;;;;;19.60;11.90;;;3.50;99.90;;;;;;4969730;28;20233;-65
2022/11/18 09:36:14;;;;;;;19.70;12.53;;;3.50;99.90;;;;;;5025500;28;20217;-64
2022/11/18 09:38:41;;;;;;;22.33;12.93;;;3.60;99.90;;;;;;5010667;28;20358;-65
2022/11/18 09:41:23;;;;;;;19.53;12.43;;;3.50;99.90;;;;;;5025724;28;20211;-65
2022/11/18 09:44:03;;;;;;;24.17;12.73;;;3.50;99.90;;;;;;5009999;28;20710;-64
2022/11/18 09:46:40;;;;;;;22.47;13.30;;;3.50;99.90;;;;;;5019218;28;20205;-64
2022/11/18 09:49:14;;;;;;;22.10;13.03;;;3.50;99.90;;;;;;5015490;28;20219;-65
2022/11/18 09:51:42;;;;;;;20.30;12.07;;;3.50;99.90;;;;;;4998987;28;20355;-64
2022/11/18 09:54:13;;;;;;;23.43;13.37;;;3.50;99.90;;;;;;5010630;28;20208;-64
2022/11/18 09:56:41;;;;;;;22.73;13.10;;;3.50;99.90;;;;;;5002027;28;20216;-64
2022/11/18 09:59:13;;;;;;;18.77;12.67;;;3.50;99.90;;;;;;5017009;28;20615;-64
2022/11/18 10:01:41;;;;;;;23.73;13.53;;;3.50;99.90;;;;;;5004918;28;21053;-64
2022/11/18 10:04:14;;;;;;;19.97;12.17;;;3.60;99.90;;;;;;5030103;28;20228;-63
2022/11/18 10:06:41;;;;;;;18.57;11.63;;;3.60;99.90;;;;;;4989675;28;20228;-64
2022/11/18 10:09:33;;;;;;;19.33;12.50;;;3.60;99.90;;;;;;5017349;28;21250;-64
2022/11/18 10:12:19;;;;;;;19.83;12.30;;;3.70;99.90;;;;;;5028528;28;20252;-64
2022/11/18 10:15:13;;;;;;;18.80;12.00;;;3.50;99.90;;;;;;5009323;28;20202;-64
2022/11/18 10:17:50;;;;;;;20.47;11.73;;;3.50;99.90;;;;;;5015671;28;20206;-64
2022/11/18 10:20:42;;;;;;;20.30;12.63;;;3.50;99.90;;;;;;5003405;28;20221;-64
2022/11/18 10:23:16;;;;;;;23.90;11.13;;;3.50;99.90;;;;;;5026935;28;20243;-63
2022/11/18 10:53:02;;;;;;;15.97;9.70;;;3.30;99.90;;;;;;4998548;28;20808;-63
2022/11/18 10:55:30;;;;;;;16.10;9.57;;;3.30;99.90;;;;;;5000323;28;20218;-64
2022/11/18 10:58:03;;;;;;;14.83;9.03;;;3.30;99.90;;;;;;5008150;28;20251;-64
2022/11/18 11:00:36;;;;;;;15.37;9.63;;;3.30;99.90;;;;;;5003328;28;20205;-63
2022/11/18 11:03:30;;;;;;;15.43;9.27;;;3.30;99.90;;;;;;4989577;28;20280;-62
2022/11/18 11:06:30;;;;;;;16.13;9.67;;;3.40;99.90;;;;;;5011821;28;20232;-63
2022/11/18 11:09:01;;;;;;;16.27;9.73;;;3.30;99.90;;;;;;4982149;28;20687;-63
2022/11/18 11:11:29;;;;;;;13.23;9.10;;;3.30;99.90;;;;;;5001700;28;20243;-63
2022/11/18 11:14:06;;;;;;;16.13;9.07;;;3.30;99.90;;;;;;5009953;28;20299;-64
2022/11/18 11:16:41;;;;;;;13.10;9.17;;;3.40;99.90;;;;;;5010379;28;20220;-63
2022/11/18 11:19:12;;;;;;;14.60;9.60;;;3.30;99.90;;;;;;5018212;28;20450;-64
2022/11/18 11:21:39;;;;;;;13.30;8.30;;;3.30;99.90;;;;;;5006120;28;20266;-65
2022/11/18 11:24:12;;;;;;;13.27;8.80;;;3.40;99.90;;;;;;4991704;28;20731;-63
2022/11/18 11:26:46;;;;;;;14.73;9.33;;;3.40;99.90;;;;;;5002453;28;20757;-65
2022/11/18 11:29:24;;;;;;;14.03;9.23;;;3.40;99.90;;;;;;5028210;28;20201;-63
2022/11/18 11:32:00;;;;;;;19.13;9.53;;;3.40;99.90;;;;;;5009004;28;20723;-64
2022/11/18 11:34:36;;;;;;;12.93;8.03;;;3.40;99.90;;;;;;5016262;28;20202;-64
2022/11/18 11:37:12;;;;;;;14.30;9.20;;;3.40;99.90;;;;;;5010253;28;20205;-63
2022/11/18 11:40:16;;;;;;;12.17;8.83;;;3.40;99.90;;;;;;4997253;28;20220;-64
2022/11/18 11:42:53;;;;;;;15.73;9.63;;;3.40;99.90;;;;;;4982350;28;20840;-64
2022/11/18 11:45:26;;;;;;;16.73;10.33;;;3.40;99.90;;;;;;5009189;28;20229;-63
2022/11/18 11:48:15;;;;;;;13.50;8.83;;;3.30;99.90;;;;;;5009104;28;20229;-64
2022/11/18 11:50:57;;;;;;;16.30;10.10;;;3.30;99.90;;;;;;5005777;28;20228;-64
2022/11/18 11:53:52;;;;;;;12.57;9.07;;;3.40;99.90;;;;;;4992519;28;20603;-63
2022/11/18 11:56:25;;;;;;;14.50;9.30;;;3.30;99.90;;;;;;4955943;28;20225;-64
2022/11/18 11:59:12;;;;;;;17.00;10.60;;;3.30;99.90;;;;;;5008687;28;20198;-63
2022/11/18 12:01:50;;;;;;;15.77;10.27;;;3.40;99.90;;;;;;4971567;28;20657;-63
2022/11/18 12:04:30;;;;;;;18.00;10.53;;;3.30;99.90;;;;;;4989625;28;20236;-64
2022/11/18 12:06:59;;;;;;;17.87;10.30;;;3.40;99.90;;;;;;4991955;28;20203;-64
2022/11/18 12:09:37;;;;;;;13.40;9.47;;;3.40;99.90;;;;;;4994730;28;20246;-64
2022/11/18 12:12:33;;;;;;;16.23;9.87;;;3.40;99.90;;;;;;4966859;28;20229;-64
2022/11/18 12:15:01;;;;;;;13.27;9.50;;;3.40;99.90;;;;;;5007298;28;20222;-64
2022/11/18 12:17:33;;;;;;;16.10;9.63;;;3.50;99.90;;;;;;4973567;28;20793;-65
2022/11/18 12:20:00;;;;;;;13.37;9.03;;;3.50;99.90;;;;;;5009532;28;20566;-64
2022/11/18 12:23:01;;;;;;;14.20;9.23;;;3.50;99.90;;;;;;4988094;28;20249;-64
2022/11/18 12:25:57;;;;;;;15.27;10.23;;;3.50;99.90;;;;;;4983590;28;20656;-64
2022/11/18 12:28:29;;;;;;;13.17;9.10;;;3.40;99.90;;;;;;4956420;28;20229;-65
2022/11/18 12:31:34;;;;;;;17.13;10.10;;;3.40;99.90;;;;;;4994520;28;20257;-65
2022/11/18 12:34:05;;;;;;;17.63;10.47;;;3.40;99.90;;;;;;4967443;28;20222;-64
2022/11/18 12:36:34;;;;;;;15.23;10.23;;;3.40;99.90;;;;;;4984230;28;20240;-64
2022/11/18 12:39:47;;;;;;;17.03;10.30;;;3.40;99.90;;;;;;5002612;28;20234;-64
2022/11/18 12:45:58;;;;;;;15.47;10.03;;;3.30;99.90;;;;;;4971154;28;20831;-64
2022/11/18 12:48:43;;;;;;;14.60;9.47;;;3.30;99.90;;;;;;4976479;28;20222;-64
2022/11/18 12:51:46;;;;;;;15.57;10.00;;;3.40;99.90;;;;;;4992165;28;20202;-64
2022/11/18 12:54:32;;;;;;;15.63;10.40;;;3.30;99.90;;;;;;5009055;28;20239;-64
2022/11/18 12:57:02;;;;;;;17.30;10.23;;;3.40;99.90;;;;;;4988928;28;20230;-65
2022/11/18 12:59:36;;;;;;;13.10;9.83;;;3.40;99.90;;;;;;5013596;28;20236;-64
2022/11/18 13:02:24;;;;;;;16.33;10.73;;;3.40;99.90;;;;;;5010966;28;20220;-63
2022/11/18 13:05:09;;;;;;;19.37;12.40;;;3.40;99.90;;;;;;5014365;28;20225;-64
2022/11/18 13:10:31;;;;;;;19.73;11.90;;;3.00;99.90;;;;;;5001795;28;23674;-64
2022/11/18 13:12:59;;;;;;;17.20;11.47;;;3.20;99.90;;;;;;4995496;28;20227;-64
2022/11/18 13:18:16;;;;;;;18.77;11.57;;;3.10;99.90;;;;;;5013744;28;20804;-65
2022/11/18 13:20:43;;;;;;;16.80;10.90;;;3.10;99.90;;;;;;5005498;28;20205;-65
2022/11/18 13:26:19;;;;;;;27.73;15.10;;;3.10;99.90;;;;;;5020274;28;20301;-64
2022/11/18 13:29:06;;;;;;;17.40;11.50;;;3.10;99.90;;;;;;4985734;28;20220;-64
2022/11/18 13:31:39;;;;;;;17.57;10.80;;;3.00;99.90;;;;;;4989215;28;20747;-64
2022/11/18 13:34:16;;;;;;;21.10;10.83;;;3.00;99.90;;;;;;5003975;28;20619;-64
2022/11/18 13:36:44;;;;;;;16.27;11.10;;;3.00;99.90;;;;;;4994786;28;20209;-64
2022/11/18 13:39:19;;;;;;;16.20;11.10;;;3.00;99.90;;;;;;5004363;28;20203;-64
2022/11/18 13:41:46;;;;;;;17.23;11.13;;;3.00;99.90;;;;;;5005795;28;21224;-65
2022/11/18 13:44:18;;;;;;;17.20;11.33;;;3.10;99.90;;;;;;4988286;28;20244;-65
2022/11/18 13:46:49;;;;;;;17.10;10.87;;;3.10;99.90;;;;;;4980180;28;20240;-63
2022/11/18 13:49:19;;;;;;;18.80;10.93;;;3.00;99.90;;;;;;4987058;28;20323;-64
2022/11/18 13:51:46;;;;;;;18.40;11.53;;;3.00;99.90;;;;;;4999204;28;20231;-63
2022/11/18 13:54:19;;;;;;;18.90;10.87;;;3.00;99.90;;;;;;4989431;28;23251;-63
2022/11/18 13:56:47;;;;;;;20.23;11.83;;;3.10;99.90;;;;;;4990108;28;20225;-63
2022/11/18 13:59:18;;;;;;;17.37;10.80;;;3.10;99.90;;;;;;4986875;28;20203;-63
2022/11/18 14:01:52;;;;;;;19.33;11.80;;;3.00;99.90;;;;;;4987281;28;20447;-63
2022/11/18 14:04:22;;;;;;;18.23;11.60;;;2.90;99.90;;;;;;5016525;28;20759;-64
2022/11/18 14:14:27;;;;;;;17.60;11.10;;;3.00;99.90;;;;;;4963627;28;20245;-63
2022/11/18 14:17:16;;;;;;;19.93;10.37;;;2.90;99.90;;;;;;4942023;28;20298;-64